Time;durP1;ratioP1;P1;durP2;ratioP2;P2;SDS_P1;SDS_P2;PMS_P1;PMS_P2;Temp;Humidity;BMP_temperature;BMP_pressure;BME280_temperature;BME280_humidity;BME280_pressure;Samples;Min_cycle;Max_cycle;Signal;HPM_P1;HPM_P2
2022/01/08 00:02:41;;;;;;;19.52;11.45;;;;;;;;;;6262191;28;20184;-65
2022/01/08 00:05:42;;;;;;;23.27;11.27;;;;;;;;;;6263049;28;20106;-66
2022/01/08 00:08:44;;;;;;;18.42;11.40;;;;;;;;;;6255783;28;20572;-65
2022/01/08 00:11:47;;;;;;;25.48;12.63;;;;;;;;;;6256858;28;20525;-65
2022/01/08 00:14:48;;;;;;;17.35;11.25;;;;;;;;;;6245852;28;20183;-65
2022/01/08 00:17:50;;;;;;;21.05;12.32;;;;;;;;;;6250441;28;20520;-65
2022/01/08 00:20:52;;;;;;;24.92;12.88;;;;;;;;;;6263889;28;20068;-65
2022/01/08 00:23:54;;;;;;;21.92;13.25;;;;;;;;;;6254833;28;20135;-65
2022/01/08 00:26:57;;;;;;;19.40;12.18;;;;;;;;;;6265553;28;20056;-65
2022/01/08 00:29:59;;;;;;;32.60;13.63;;;;;;;;;;6263069;28;20532;-65
2022/01/08 00:33:00;;;;;;;24.00;14.05;;;;;;;;;;6260400;28;20451;-65
2022/01/08 00:36:02;;;;;;;27.90;14.80;;;;;;;;;;6256053;28;20560;-65
2022/01/08 00:39:03;;;;;;;25.17;14.88;;;;;;;;;;6253554;28;20168;-65
2022/01/08 00:42:06;;;;;;;24.45;13.38;;;;;;;;;;6253309;28;20127;-63
2022/01/08 00:45:09;;;;;;;22.20;14.43;;;;;;;;;;6254300;28;20146;-66
2022/01/08 00:48:10;;;;;;;21.33;13.20;;;;;;;;;;6259344;28;20058;-65
2022/01/08 00:51:12;;;;;;;26.63;14.27;;;;;;;;;;6252844;28;20154;-65
2022/01/08 00:54:14;;;;;;;21.73;13.43;;;;;;;;;;6262988;28;20123;-65
2022/01/08 00:57:17;;;;;;;25.52;13.45;;;;;;;;;;6259620;28;20518;-64
2022/01/08 01:00:18;;;;;;;37.17;14.63;;;;;;;;;;6259243;28;20421;-64
2022/01/08 01:03:20;;;;;;;24.50;14.30;;;;;;;;;;6259759;28;20503;-65
2022/01/08 01:06:22;;;;;;;27.20;13.32;;;;;;;;;;6258805;28;20136;-65
2022/01/08 01:09:24;;;;;;;21.98;13.25;;;;;;;;;;6257901;28;20060;-64
2022/01/08 01:12:27;;;;;;;23.98;13.15;;;;;;;;;;6259152;28;20514;-65
2022/01/08 01:15:29;;;;;;;23.33;12.93;;;;;;;;;;6258290;28;20132;-65
2022/01/08 01:18:30;;;;;;;28.60;13.63;;;;;;;;;;6255170;28;20057;-64
2022/01/08 01:21:32;;;;;;;25.52;12.35;;;;;;;;;;6258931;28;20222;-65
2022/01/08 01:24:36;;;;;;;23.35;12.82;;;;;;;;;;6262873;28;20508;-64
2022/01/08 01:27:57;;;;;;;23.83;12.80;;;;;;;;;;6255664;28;20056;-65
2022/01/08 01:41:14;;;;;;;21.25;12.82;;;;;;;;;;6253665;28;20426;-64
2022/01/08 01:47:37;;;;;;;26.98;12.38;;;;;;;;;;6265086;28;20057;-64
2022/01/08 01:50:38;;;;;;;23.27;13.00;;;;;;;;;;6258650;28;20084;-64
2022/01/08 01:53:40;;;;;;;22.90;12.15;;;;;;;;;;6261575;28;20128;-64
2022/01/08 01:56:41;;;;;;;23.73;13.20;;;;;;;;;;6257939;28;20183;-64
2022/01/08 01:59:44;;;;;;;25.90;14.10;;;;;;;;;;6253126;28;20081;-65
2022/01/08 02:02:46;;;;;;;20.42;13.32;;;;;;;;;;6253722;28;20045;-64
2022/01/08 02:05:48;;;;;;;20.23;12.77;;;;;;;;;;6252754;28;20481;-64
2022/01/08 02:08:50;;;;;;;19.23;12.82;;;;;;;;;;6258526;28;20175;-64
2022/01/08 02:12:02;;;;;;;28.52;12.90;;;;;;;;;;6256227;28;20103;-64
2022/01/08 02:15:06;;;;;;;19.40;12.25;;;;;;;;;;6259186;28;20084;-64
2022/01/08 02:18:07;;;;;;;24.90;14.32;;;;;;;;;;6263414;28;20057;-64
2022/01/08 02:21:12;;;;;;;29.17;17.48;;;;;;;;;;6262534;28;20136;-64
2022/01/08 02:24:14;;;;;;;29.02;17.13;;;;;;;;;;6257702;28;20041;-64
2022/01/08 02:27:16;;;;;;;22.85;14.23;;;;;;;;;;6257640;28;20424;-64
2022/01/08 02:30:18;;;;;;;21.17;13.55;;;;;;;;;;6254304;28;20083;-64
2022/01/08 02:33:24;;;;;;;124.63;48.92;;;;;;;;;;6255223;28;20579;-65
2022/01/08 02:36:27;;;;;;;58.55;28.13;;;;;;;;;;6251790;28;20636;-64
2022/01/08 02:39:30;;;;;;;81.90;31.75;;;;;;;;;;6253517;28;20052;-64
2022/01/08 02:42:38;;;;;;;125.18;48.83;;;;;;;;;;6252944;28;20167;-64
2022/01/08 02:45:39;;;;;;;34.85;19.95;;;;;;;;;;6253347;28;20264;-63
2022/01/08 02:48:41;;;;;;;28.25;15.13;;;;;;;;;;6257759;28;20094;-64
2022/01/08 02:51:44;;;;;;;23.80;14.30;;;;;;;;;;6250236;28;20091;-64
2022/01/08 02:54:46;;;;;;;22.60;13.32;;;;;;;;;;6253789;28;20099;-64
2022/01/08 02:57:48;;;;;;;22.20;13.98;;;;;;;;;;6257871;28;20081;-64
2022/01/08 03:00:50;;;;;;;25.27;13.77;;;;;;;;;;6253581;28;20045;-64
2022/01/08 03:03:56;;;;;;;23.45;13.30;;;;;;;;;;6252944;28;20064;-64
2022/01/08 03:06:59;;;;;;;22.65;13.18;;;;;;;;;;6251930;28;20175;-64
2022/01/08 03:10:01;;;;;;;22.65;12.73;;;;;;;;;;6250702;28;20395;-64
2022/01/08 03:13:04;;;;;;;19.58;13.05;;;;;;;;;;6259513;28;20140;-64
2022/01/08 03:16:06;;;;;;;27.10;13.50;;;;;;;;;;6258833;28;20512;-64
2022/01/08 03:19:10;;;;;;;23.35;13.63;;;;;;;;;;6254979;28;20068;-65
2022/01/08 03:22:13;;;;;;;;;;;;;;;;;;6252015;28;20045;-64
2022/01/08 03:25:16;;;;;;;22.10;13.07;;;;;;;;;;6255516;28;19936;-65
2022/01/08 03:28:17;;;;;;;25.90;13.40;;;;;;;;;;6254374;28;20094;-64
2022/01/08 03:31:19;;;;;;;23.40;12.80;;;;;;;;;;6255630;28;20195;-64
2022/01/08 03:34:21;;;;;;;21.55;13.75;;;;;;;;;;6250730;28;20123;-64
2022/01/08 03:37:24;;;;;;;25.10;13.70;;;;;;;;;;6253777;28;20123;-64
2022/01/08 03:40:25;;;;;;;22.25;14.15;;;;;;;;;;6251241;28;20175;-64
2022/01/08 03:43:27;;;;;;;21.58;13.57;;;;;;;;;;6255689;28;20175;-64
2022/01/08 03:46:33;;;;;;;24.05;13.68;;;;;;;;;;6258790;28;20127;-64
2022/01/08 03:49:34;;;;;;;29.65;14.20;;;;;;;;;;6260474;28;20053;-64
2022/01/08 03:52:37;;;;;;;22.45;13.40;;;;;;;;;;6258214;28;20693;-64
2022/01/08 03:55:39;;;;;;;23.15;14.20;;;;;;;;;;6254778;28;20069;-64
2022/01/08 03:58:41;;;;;;;24.40;14.00;;;;;;;;;;6253613;28;20132;-64
2022/01/08 04:01:42;;;;;;;23.75;14.23;;;;;;;;;;6258003;28;20098;-64
2022/01/08 04:04:44;;;;;;;24.02;14.52;;;;;;;;;;6258349;28;20073;-64
2022/01/08 04:07:46;;;;;;;25.17;14.60;;;;;;;;;;6253540;28;20119;-64
2022/01/08 04:10:48;;;;;;;24.15;14.73;;;;;;;;;;6258273;28;20073;-64
2022/01/08 04:13:50;;;;;;;25.80;15.07;;;;;;;;;;6264287;28;20069;-64
2022/01/08 04:16:53;;;;;;;27.65;15.40;;;;;;;;;;6259848;28;20501;-64
2022/01/08 04:19:54;;;;;;;23.95;14.15;;;;;;;;;;6255617;28;20139;-64
2022/01/08 04:22:57;;;;;;;26.20;15.88;;;;;;;;;;6255654;28;20136;-64
2022/01/08 04:25:59;;;;;;;26.65;15.98;;;;;;;;;;6251647;28;20045;-64
2022/01/08 04:29:00;;;;;;;26.65;15.52;;;;;;;;;;6252267;28;20183;-64
2022/01/08 04:32:02;;;;;;;26.27;15.57;;;;;;;;;;6250923;28;20057;-64
2022/01/08 04:35:05;;;;;;;26.20;16.45;;;;;;;;;;6254783;28;20539;-64
2022/01/08 04:38:08;;;;;;;28.30;15.80;;;;;;;;;;6262674;28;20053;-64
2022/01/08 04:41:10;;;;;;;25.10;15.67;;;;;;;;;;6265517;28;20408;-64
2022/01/08 04:44:11;;;;;;;27.90;14.90;;;;;;;;;;6258894;28;20183;-64
2022/01/08 04:47:13;;;;;;;25.35;15.52;;;;;;;;;;6261135;28;20137;-64
2022/01/08 04:50:15;;;;;;;25.17;15.43;;;;;;;;;;6256162;28;20049;-65
2022/01/08 04:53:18;;;;;;;29.15;16.00;;;;;;;;;;6257162;28;20579;-64
2022/01/08 04:56:19;;;;;;;26.52;16.05;;;;;;;;;;6259878;28;20456;-64
2022/01/08 04:59:21;;;;;;;25.70;15.32;;;;;;;;;;6261754;28;20076;-65
2022/01/08 05:02:22;;;;;;;25.55;15.63;;;;;;;;;;6255572;28;20447;-64
2022/01/08 05:05:24;;;;;;;26.52;15.40;;;;;;;;;;6266365;28;20126;-64
2022/01/08 05:08:27;;;;;;;28.15;15.45;;;;;;;;;;6266468;28;20128;-65
2022/01/08 05:11:28;;;;;;;29.02;15.15;;;;;;;;;;6265338;28;20053;-63
2022/01/08 05:14:30;;;;;;;26.52;15.32;;;;;;;;;;6260040;28;20179;-64
2022/01/08 05:17:35;;;;;;;30.40;15.55;;;;;;;;;;6260371;28;20060;-64
2022/01/08 05:20:39;;;;;;;28.15;15.85;;;;;;;;;;6256925;28;20041;-63
2022/01/08 05:23:42;;;;;;;27.83;15.40;;;;;;;;;;6261180;28;20056;-64
2022/01/08 05:26:43;;;;;;;27.50;15.38;;;;;;;;;;6254238;28;20400;-64
2022/01/08 05:29:46;;;;;;;30.90;15.68;;;;;;;;;;6260964;28;20056;-64
2022/01/08 05:32:48;;;;;;;25.40;16.80;;;;;;;;;;6265014;28;20599;-64
2022/01/08 05:35:49;;;;;;;22.50;16.08;;;;;;;;;;6265289;28;20558;-64
2022/01/08 05:38:52;;;;;;;32.15;16.75;;;;;;;;;;6255118;28;20133;-63
2022/01/08 05:41:54;;;;;;;29.17;14.98;;;;;;;;;;6257364;28;20131;-63
2022/01/08 05:44:55;;;;;;;26.95;14.95;;;;;;;;;;6256441;28;20518;-64
2022/01/08 05:47:57;;;;;;;23.45;15.02;;;;;;;;;;6262258;28;20045;-63
2022/01/08 05:50:59;;;;;;;25.98;14.95;;;;;;;;;;6275658;28;20128;-63
2022/01/08 05:54:01;;;;;;;21.73;14.70;;;;;;;;;;6268588;28;20144;-63
2022/01/08 05:57:04;;;;;;;24.35;15.75;;;;;;;;;;6255076;28;20123;-64
2022/01/08 06:00:07;;;;;;;27.42;15.55;;;;;;;;;;6262216;28;20063;-64
2022/01/08 06:03:09;;;;;;;25.13;15.20;;;;;;;;;;6259865;28;20489;-63
2022/01/08 06:06:10;;;;;;;24.73;16.00;;;;;;;;;;6256780;28;20497;-64
2022/01/08 06:09:13;;;;;;;26.05;16.13;;;;;;;;;;6256992;28;20171;-63
2022/01/08 06:12:15;;;;;;;26.15;15.55;;;;;;;;;;6257059;28;20497;-63
2022/01/08 06:15:17;;;;;;;27.92;15.43;;;;;;;;;;6258428;28;20150;-64
2022/01/08 06:18:18;;;;;;;27.90;16.55;;;;;;;;;;6258108;28;20123;-63
2022/01/08 06:21:20;;;;;;;24.65;14.73;;;;;;;;;;6259014;28;20623;-63
2022/01/08 06:24:22;;;;;;;26.65;15.23;;;;;;;;;;6257161;28;20115;-64
2022/01/08 06:27:24;;;;;;;25.75;15.48;;;;;;;;;;6257919;28;20178;-63
2022/01/08 06:30:26;;;;;;;25.98;14.85;;;;;;;;;;6258189;28;20191;-64
2022/01/08 06:33:27;;;;;;;24.77;15.20;;;;;;;;;;6257007;28;20053;-63
2022/01/08 06:36:29;;;;;;;29.60;15.38;;;;;;;;;;6253976;28;20127;-63
2022/01/08 06:39:32;;;;;;;28.25;15.85;;;;;;;;;;6253794;28;20049;-63
2022/01/08 06:42:33;;;;;;;27.15;15.52;;;;;;;;;;6252008;28;20132;-63
2022/01/08 06:45:35;;;;;;;31.92;15.90;;;;;;;;;;6256434;28;20512;-64
2022/01/08 06:48:37;;;;;;;25.05;15.52;;;;;;;;;;6259353;28;20132;-64
2022/01/08 06:51:39;;;;;;;23.83;15.55;;;;;;;;;;6256827;28;20175;-64
2022/01/08 06:54:42;;;;;;;26.90;15.98;;;;;;;;;;6258529;28;20187;-65
2022/01/08 06:57:44;;;;;;;23.65;14.02;;;;;;;;;;6258782;28;20192;-64
2022/01/08 07:00:45;;;;;;;23.67;15.25;;;;;;;;;;6255365;28;20069;-64
2022/01/08 07:03:47;;;;;;;26.27;15.27;;;;;;;;;;6254937;28;20142;-64
2022/01/08 07:06:48;;;;;;;24.90;16.25;;;;;;;;;;6258164;28;20132;-64
2022/01/08 07:09:51;;;;;;;28.77;16.33;;;;;;;;;;6255324;28;20086;-63
2022/01/08 07:12:53;;;;;;;24.60;15.57;;;;;;;;;;6255308;28;20057;-64
2022/01/08 07:15:54;;;;;;;26.80;16.35;;;;;;;;;;6254530;28;20632;-63
2022/01/08 07:18:56;;;;;;;25.98;15.88;;;;;;;;;;6252894;28;20199;-64
2022/01/08 07:21:59;;;;;;;29.75;16.48;;;;;;;;;;6250102;28;20052;-64
2022/01/08 07:25:03;;;;;;;26.35;16.60;;;;;;;;;;6256902;28;20053;-64
2022/01/08 07:28:05;;;;;;;25.90;16.70;;;;;;;;;;6250096;28;20053;-63
2022/01/08 07:31:06;;;;;;;34.10;16.90;;;;;;;;;;6259247;28;20070;-64
2022/01/08 07:34:08;;;;;;;26.33;15.30;;;;;;;;;;6249717;28;20497;-64
2022/01/08 07:37:10;;;;;;;23.80;14.98;;;;;;;;;;6258487;28;20126;-64
2022/01/08 07:40:14;;;;;;;22.92;14.75;;;;;;;;;;6252113;28;20088;-64
2022/01/08 07:43:15;;;;;;;22.13;15.55;;;;;;;;;;6253280;28;20536;-64
2022/01/08 07:46:17;;;;;;;29.58;16.05;;;;;;;;;;6252011;28;20425;-64
2022/01/08 07:49:18;;;;;;;21.85;15.18;;;;;;;;;;6251198;28;20136;-64
2022/01/08 07:52:20;;;;;;;29.23;15.75;;;;;;;;;;6258885;28;20552;-64
2022/01/08 07:55:23;;;;;;;25.08;15.57;;;;;;;;;;6250251;28;20450;-64
2022/01/08 07:58:24;;;;;;;25.80;15.63;;;;;;;;;;6254271;28;20520;-64
2022/01/08 08:01:26;;;;;;;27.13;16.02;;;;;;;;;;6256646;28;20049;-64
2022/01/08 08:04:27;;;;;;;27.80;16.08;;;;;;;;;;6251081;28;20144;-64
2022/01/08 08:07:31;;;;;;;23.20;15.35;;;;;;;;;;6255102;28;20569;-63
2022/01/08 08:10:34;;;;;;;25.75;14.65;;;;;;;;;;6259685;28;20624;-64
2022/01/08 08:13:35;;;;;;;22.27;15.05;;;;;;;;;;6256965;28;20128;-64
2022/01/08 08:16:37;;;;;;;24.73;15.52;;;;;;;;;;6259330;28;20212;-64
2022/01/08 08:19:38;;;;;;;26.75;16.05;;;;;;;;;;6267700;28;20144;-64
2022/01/08 08:22:40;;;;;;;21.83;14.32;;;;;;;;;;6266219;28;20179;-64
2022/01/08 08:25:43;;;;;;;20.80;14.60;;;;;;;;;;6263623;28;20095;-64
2022/01/08 08:28:45;;;;;;;24.13;15.65;;;;;;;;;;6266063;28;20493;-64
2022/01/08 08:31:46;;;;;;;29.30;15.82;;;;;;;;;;6263905;28;20524;-64
2022/01/08 08:34:50;;;;;;;23.75;15.95;;;;;;;;;;6266487;28;20128;-64
2022/01/08 08:37:52;;;;;;;29.38;15.90;;;;;;;;;;6259836;28;20054;-64
2022/01/08 08:40:55;;;;;;;24.27;15.52;;;;;;;;;;6266660;28;20139;-64
2022/01/08 08:43:56;;;;;;;23.70;15.43;;;;;;;;;;6257186;28;20116;-64
2022/01/08 08:46:58;;;;;;;25.77;14.73;;;;;;;;;;6264935;28;20471;-64
2022/01/08 08:49:59;;;;;;;22.80;15.77;;;;;;;;;;6266057;28;20515;-64
2022/01/08 08:53:01;;;;;;;24.08;15.43;;;;;;;;;;6267815;28;20489;-64
2022/01/08 08:56:04;;;;;;;27.70;16.20;;;;;;;;;;6264185;28;20068;-64
2022/01/08 08:59:06;;;;;;;23.90;15.37;;;;;;;;;;6257061;28;20073;-64
2022/01/08 09:02:08;;;;;;;23.98;16.17;;;;;;;;;;6259955;28;20182;-68
2022/01/08 09:05:10;;;;;;;24.80;16.38;;;;;;;;;;6263945;28;20128;-64
2022/01/08 09:08:12;;;;;;;22.27;15.80;;;;;;;;;;6263107;28;20140;-64
2022/01/08 09:11:14;;;;;;;22.20;15.13;;;;;;;;;;6268563;28;20048;-64
2022/01/08 09:14:16;;;;;;;27.00;16.73;;;;;;;;;;6267149;28;20045;-64
2022/01/08 09:17:18;;;;;;;26.20;17.13;;;;;;;;;;6267897;28;20053;-64
2022/01/08 09:20:20;;;;;;;24.77;17.20;;;;;;;;;;6261184;28;20503;-64
2022/01/08 09:23:22;;;;;;;24.73;16.25;;;;;;;;;;6261758;28;20080;-64
2022/01/08 09:26:25;;;;;;;23.92;16.33;;;;;;;;;;6260526;28;20492;-64
2022/01/08 09:29:26;;;;;;;24.27;16.02;;;;;;;;;;6257898;28;20079;-64
2022/01/08 09:32:28;;;;;;;21.55;16.42;;;;;;;;;;6254742;28;20053;-64
2022/01/08 09:35:30;;;;;;;21.63;15.27;;;;;;;;;;6259945;28;20135;-64
2022/01/08 09:38:31;;;;;;;22.48;16.38;;;;;;;;;;6262881;28;20119;-64
2022/01/08 09:41:35;;;;;;;21.13;16.17;;;;;;;;;;6259951;28;20049;-64
2022/01/08 09:44:37;;;;;;;24.85;15.77;;;;;;;;;;6264942;28;20072;-64
2022/01/08 09:47:39;;;;;;;22.83;15.82;;;;;;;;;;6263339;28;20060;-64
2022/01/08 09:50:41;;;;;;;18.88;15.27;;;;;;;;;;6263227;28;20128;-63
2022/01/08 09:53:43;;;;;;;20.48;15.15;;;;;;;;;;6258693;28;20064;-64
2022/01/08 09:56:46;;;;;;;19.95;15.48;;;;;;;;;;6257453;28;20047;-64
2022/01/08 09:59:48;;;;;;;20.80;15.48;;;;;;;;;;6257470;28;20191;-64
2022/01/08 10:02:51;;;;;;;20.77;14.82;;;;;;;;;;6259326;28;20083;-64
2022/01/08 10:05:54;;;;;;;22.63;15.48;;;;;;;;;;6259659;28;20128;-64
2022/01/08 10:08:56;;;;;;;19.10;14.50;;;;;;;;;;6257898;28;20049;-64
2022/01/08 10:11:59;;;;;;;20.13;15.02;;;;;;;;;;6264594;28;20080;-64
2022/01/08 10:18:25;;;;;;;18.20;13.10;;;;;;;;;;6256856;28;20053;-64
2022/01/08 10:21:28;;;;;;;17.00;13.55;;;;;;;;;;6257971;28;20148;-64
2022/01/08 10:24:31;;;;;;;16.77;12.85;;;;;;;;;;6256134;28;20557;-64
2022/01/08 10:27:36;;;;;;;17.20;13.18;;;;;;;;;;6259431;28;20501;-64
2022/01/08 10:30:38;;;;;;;17.83;12.80;;;;;;;;;;6252345;28;20128;-64
2022/01/08 10:33:40;;;;;;;16.55;12.90;;;;;;;;;;6257105;28;20084;-64
2022/01/08 10:36:43;;;;;;;17.02;13.10;;;;;;;;;;6255190;28;20122;-64
2022/01/08 10:39:54;;;;;;;22.35;13.02;;;;;;;;;;6257606;28;20195;-63
2022/01/08 10:42:57;;;;;;;17.25;14.18;;;;;;;;;;6256025;28;20512;-64
2022/01/08 10:46:10;;;;;;;20.88;13.73;;;;;;;;;;6254357;28;20391;-64
2022/01/08 10:49:12;;;;;;;18.55;14.02;;;;;;;;;;6251141;28;20095;-64
2022/01/08 10:52:15;;;;;;;16.08;13.95;;;;;;;;;;6252210;28;20580;-64
2022/01/08 10:55:30;;;;;;;15.30;13.47;;;;;;;;;;6257906;28;20049;-64
2022/01/08 10:58:43;;;;;;;15.43;13.68;;;;;;;;;;6255077;28;20180;-64
2022/01/08 11:01:51;;;;;;;17.60;14.20;;;;;;;;;;6252997;28;20510;-64
2022/01/08 11:04:54;;;;;;;19.85;14.25;;;;;;;;;;6253794;28;20048;-64
2022/01/08 11:08:13;;;;;;;18.17;14.45;;;;;;;;;;6256284;28;20115;-64
2022/01/08 11:11:16;;;;;;;17.83;13.57;;;;;;;;;;6253459;28;20045;-64
2022/01/08 11:17:43;;;;;;;17.00;13.45;;;;;;;;;;6255688;28;20050;-64
2022/01/08 11:20:45;;;;;;;15.65;13.32;;;;;;;;;;6255043;28;20091;-64
2022/01/08 11:23:47;;;;;;;17.48;13.75;;;;;;;;;;6259132;28;20976;-64
2022/01/08 11:26:51;;;;;;;16.95;13.80;;;;;;;;;;6253716;28;20048;-64
2022/01/08 11:30:08;;;;;;;17.95;13.23;;;;;;;;;;6255696;28;20190;-64
2022/01/08 11:33:16;;;;;;;16.88;13.52;;;;;;;;;;6256095;28;20146;-64
2022/01/08 11:36:18;;;;;;;14.13;12.02;;;;;;;;;;6256414;28;20171;-65
2022/01/08 11:39:24;;;;;;;21.92;14.32;;;;;;;;;;6255486;28;20056;-64
2022/01/08 11:42:26;;;;;;;23.58;19.10;;;;;;;;;;6253104;28;20413;-64
2022/01/08 11:45:30;;;;;;;28.40;20.23;;;;;;;;;;6256232;28;20136;-64
2022/01/08 11:48:34;;;;;;;22.95;19.95;;;;;;;;;;6259806;28;20511;-64
2022/01/08 11:51:35;;;;;;;28.07;20.50;;;;;;;;;;6256670;28;20136;-64
2022/01/08 11:54:41;;;;;;;26.23;19.88;;;;;;;;;;6251470;28;20582;-64
2022/01/08 11:57:43;;;;;;;30.60;20.17;;;;;;;;;;6251312;28;20049;-64
2022/01/08 12:00:55;;;;;;;24.73;18.88;;;;;;;;;;6250705;28;20403;-64
2022/01/08 12:03:56;;;;;;;27.73;18.15;;;;;;;;;;6251300;28;20084;-64
2022/01/08 12:06:58;;;;;;;25.17;18.00;;;;;;;;;;6257915;28;20092;-64
2022/01/08 12:10:12;;;;;;;26.05;18.73;;;;;;;;;;6255559;28;20524;-66
2022/01/08 12:13:14;;;;;;;;;;;;;;;;;;6255498;28;20044;-64
2022/01/08 12:16:33;;;;;;;25.55;17.75;;;;;;;;;;6252226;28;19921;-64
2022/01/08 12:19:36;;;;;;;24.77;18.90;;;;;;;;;;6253097;28;20083;-65
2022/01/08 12:22:38;;;;;;;71.93;36.95;;;;;;;;;;6250453;28;20045;-64
2022/01/08 12:25:40;;;;;;;24.35;18.77;;;;;;;;;;6257616;28;20049;-65
2022/01/08 12:28:45;;;;;;;43.28;28.70;;;;;;;;;;6248958;28;20061;-64
2022/01/08 12:31:50;;;;;;;41.85;25.65;;;;;;;;;;6257697;28;20046;-64
2022/01/08 12:35:01;;;;;;;25.67;17.55;;;;;;;;;;6253739;28;20064;-64
2022/01/08 12:38:05;;;;;;;22.05;17.80;;;;;;;;;;6256808;28;20041;-62
2022/01/08 12:41:17;;;;;;;;;;;;;;;;;;6261071;28;20053;-65
2022/01/08 12:44:25;;;;;;;20.73;17.17;;;;;;;;;;6250380;28;20431;-64
2022/01/08 12:47:43;;;;;;;23.88;18.35;;;;;;;;;;6251662;28;20049;-65
2022/01/08 12:50:55;;;;;;;23.80;18.33;;;;;;;;;;6252735;28;20128;-64
2022/01/08 12:54:05;;;;;;;24.80;18.30;;;;;;;;;;6249182;28;20209;-64
2022/01/08 12:57:07;;;;;;;22.70;17.45;;;;;;;;;;6261620;28;20124;-64
2022/01/08 13:00:09;;;;;;;23.92;18.55;;;;;;;;;;6274916;28;20140;-65
2022/01/08 13:03:12;;;;;;;23.17;17.00;;;;;;;;;;6270269;28;20072;-64
2022/01/08 13:06:29;;;;;;;22.58;17.27;;;;;;;;;;6273506;28;20056;-64
2022/01/08 13:09:31;;;;;;;24.05;17.92;;;;;;;;;;6258331;28;20421;-64
2022/01/08 13:12:32;;;;;;;23.10;17.67;;;;;;;;;;6262146;28;20041;-64
2022/01/08 13:15:34;;;;;;;25.00;17.65;;;;;;;;;;6261521;28;20117;-64
2022/01/08 13:18:37;;;;;;;24.75;17.52;;;;;;;;;;6272485;28;20174;-64
2022/01/08 13:21:41;;;;;;;22.30;17.10;;;;;;;;;;6266435;28;20494;-64
2022/01/08 13:24:46;;;;;;;22.95;17.65;;;;;;;;;;6267276;28;20383;-64
2022/01/08 13:27:49;;;;;;;23.40;17.35;;;;;;;;;;6271529;28;20090;-64
2022/01/08 13:30:52;;;;;;;21.52;16.55;;;;;;;;;;6266125;28;20187;-64
2022/01/08 13:33:57;;;;;;;23.23;16.95;;;;;;;;;;6264809;28;20523;-64
2022/01/08 13:37:05;;;;;;;21.33;17.25;;;;;;;;;;6260410;28;20138;-64
2022/01/08 13:40:09;;;;;;;21.27;16.98;;;;;;;;;;6262401;28;20145;-64
2022/01/08 13:43:10;;;;;;;21.13;15.55;;;;;;;;;;6256389;28;20042;-64
2022/01/08 13:46:12;;;;;;;21.23;15.75;;;;;;;;;;6259123;28;20454;-64
2022/01/08 13:49:15;;;;;;;21.00;15.52;;;;;;;;;;6266080;28;20142;-65
2022/01/08 13:52:22;;;;;;;20.10;15.82;;;;;;;;;;6267628;28;20181;-65
2022/01/08 13:55:26;;;;;;;18.75;14.75;;;;;;;;;;6269202;28;20045;-63
2022/01/08 13:58:28;;;;;;;16.90;14.13;;;;;;;;;;6264272;28;21056;-63
2022/01/08 14:01:38;;;;;;;18.15;12.88;;;;;;;;;;6259744;28;20057;-63
2022/01/08 14:04:41;;;;;;;19.42;13.95;;;;;;;;;;6255398;28;20128;-66
2022/01/08 14:07:43;;;;;;;18.23;14.50;;;;;;;;;;6264768;28;20045;-65
2022/01/08 14:10:46;;;;;;;24.95;19.40;;;;;;;;;;6268472;28;20492;-65
2022/01/08 14:13:53;;;;;;;26.88;19.50;;;;;;;;;;6254989;28;20099;-65
2022/01/08 14:17:00;;;;;;;31.08;21.00;;;;;;;;;;6263000;28;20509;-63
2022/01/08 14:20:05;;;;;;;32.47;22.75;;;;;;;;;;6271037;28;20063;-65
2022/01/08 14:23:15;;;;;;;32.63;23.17;;;;;;;;;;6267083;28;20056;-65
2022/01/08 14:26:19;;;;;;;35.75;24.25;;;;;;;;;;6263561;28;20114;-65
2022/01/08 14:29:21;;;;;;;34.40;24.23;;;;;;;;;;6261931;28;20517;-65
2022/01/08 14:32:28;;;;;;;34.97;24.25;;;;;;;;;;6262266;28;20090;-65
2022/01/08 14:35:31;;;;;;;35.45;25.40;;;;;;;;;;6271029;28;20128;-65
2022/01/08 14:38:48;;;;;;;41.75;26.38;;;;;;;;;;6264324;28;20126;-65
2022/01/08 14:41:55;;;;;;;40.38;26.60;;;;;;;;;;6263609;28;20133;-65
2022/01/08 14:44:58;;;;;;;37.85;25.85;;;;;;;;;;6269941;28;20128;-65
2022/01/08 14:48:00;;;;;;;43.08;26.27;;;;;;;;;;6254272;28;20044;-64
2022/01/08 14:51:03;;;;;;;41.55;26.30;;;;;;;;;;6258638;28;20405;-65
2022/01/08 14:54:08;;;;;;;39.83;26.35;;;;;;;;;;6261793;28;20085;-64
2022/01/08 14:57:11;;;;;;;39.97;25.70;;;;;;;;;;6260755;28;20052;-65
2022/01/08 15:00:16;;;;;;;41.10;25.48;;;;;;;;;;6267370;28;20121;-65
2022/01/08 15:03:17;;;;;;;36.58;24.75;;;;;;;;;;6258398;28;20140;-65
2022/01/08 15:06:20;;;;;;;37.53;24.77;;;;;;;;;;6252097;28;20118;-64
2022/01/08 15:09:23;;;;;;;35.80;24.45;;;;;;;;;;6260115;28;20069;-65
2022/01/08 15:12:26;;;;;;;36.88;24.33;;;;;;;;;;6253199;28;20049;-65
2022/01/08 15:15:29;;;;;;;34.33;23.88;;;;;;;;;;6260946;28;20252;-65
2022/01/08 15:18:31;;;;;;;33.67;23.25;;;;;;;;;;6258585;28;20543;-65
2022/01/08 15:21:33;;;;;;;35.30;22.95;;;;;;;;;;6255686;28;20072;-65
2022/01/08 15:24:35;;;;;;;32.75;22.27;;;;;;;;;;6261955;28;20132;-65
2022/01/08 15:27:37;;;;;;;34.00;21.88;;;;;;;;;;6252604;28;20132;-65
2022/01/08 15:30:38;;;;;;;33.30;22.55;;;;;;;;;;6248539;28;20127;-65
2022/01/08 15:33:40;;;;;;;35.42;22.50;;;;;;;;;;6259827;28;20045;-64
2022/01/08 15:36:43;;;;;;;33.25;23.45;;;;;;;;;;6259800;28;20167;-65
2022/01/08 15:39:44;;;;;;;38.53;23.10;;;;;;;;;;6260247;28;20168;-65
2022/01/08 15:42:47;;;;;;;34.90;22.30;;;;;;;;;;6253376;28;20150;-65
2022/01/08 15:45:49;;;;;;;39.38;26.10;;;;;;;;;;6256141;28;20049;-65
2022/01/08 15:48:50;;;;;;;42.15;26.02;;;;;;;;;;6256865;28;20128;-65
2022/01/08 15:51:53;;;;;;;45.53;27.75;;;;;;;;;;6256754;28;20135;-65
2022/01/08 15:54:55;;;;;;;44.50;27.35;;;;;;;;;;6256624;28;20053;-65
2022/01/08 15:57:56;;;;;;;39.47;25.63;;;;;;;;;;6257979;28;20065;-65
2022/01/08 16:00:59;;;;;;;48.13;27.67;;;;;;;;;;6262776;28;20136;-65
2022/01/08 16:04:01;;;;;;;47.33;27.08;;;;;;;;;;6251945;28;20106;-65
2022/01/08 16:07:06;;;;;;;42.67;25.52;;;;;;;;;;6253252;28;20199;-65
2022/01/08 16:10:08;;;;;;;45.20;26.63;;;;;;;;;;6251707;28;20083;-66
2022/01/08 16:13:09;;;;;;;47.10;27.83;;;;;;;;;;6249924;28;20132;-64
2022/01/08 16:16:11;;;;;;;45.65;26.42;;;;;;;;;;6257493;28;20084;-65
2022/01/08 16:19:13;;;;;;;47.80;26.58;;;;;;;;;;6257758;28;20132;-64
2022/01/08 16:22:15;;;;;;;45.55;26.52;;;;;;;;;;6254750;28;20075;-65
2022/01/08 16:25:17;;;;;;;43.97;25.83;;;;;;;;;;6260851;28;20554;-65
2022/01/08 16:28:19;;;;;;;42.78;24.90;;;;;;;;;;6252463;28;20119;-65
2022/01/08 16:31:23;;;;;;;46.78;27.65;;;;;;;;;;6258908;28;20493;-65
2022/01/08 16:34:25;;;;;;;45.60;25.40;;;;;;;;;;6257803;28;20054;-65
2022/01/08 16:37:27;;;;;;;43.35;25.67;;;;;;;;;;6255736;28;20416;-65
2022/01/08 16:40:29;;;;;;;48.15;27.02;;;;;;;;;;6258838;28;20629;-64
2022/01/08 16:43:31;;;;;;;46.65;26.13;;;;;;;;;;6260341;28;20633;-65
2022/01/08 16:46:32;;;;;;;46.35;26.42;;;;;;;;;;6261387;28;20095;-65
2022/01/08 16:49:34;;;;;;;46.35;26.55;;;;;;;;;;6264144;28;20045;-64
2022/01/08 16:52:37;;;;;;;50.03;27.05;;;;;;;;;;6263172;28;20073;-65
2022/01/08 16:55:39;;;;;;;44.63;25.80;;;;;;;;;;6263077;28;20498;-65
2022/01/08 16:58:40;;;;;;;48.90;26.52;;;;;;;;;;6258650;28;20061;-65
2022/01/08 17:01:42;;;;;;;49.20;27.08;;;;;;;;;;6258633;28;20212;-65
2022/01/08 17:04:43;;;;;;;46.33;27.90;;;;;;;;;;6258588;28;20172;-64
2022/01/08 17:07:46;;;;;;;43.72;25.88;;;;;;;;;;6262169;28;20212;-64
2022/01/08 17:10:49;;;;;;;47.65;26.17;;;;;;;;;;6263801;28;20130;-64
2022/01/08 17:13:50;;;;;;;45.65;26.83;;;;;;;;;;6258381;28;20065;-64
2022/01/08 17:16:54;;;;;;;50.25;28.02;;;;;;;;;;6257748;28;20120;-64
2022/01/08 17:19:55;;;;;;;47.25;25.65;;;;;;;;;;6256161;28;20525;-64
2022/01/08 17:22:59;;;;;;;45.25;25.42;;;;;;;;;;6260444;28;20053;-64
2022/01/08 17:26:00;;;;;;;42.60;24.35;;;;;;;;;;6261747;28;20045;-64
2022/01/08 17:29:02;;;;;;;46.35;25.63;;;;;;;;;;6260057;28;20175;-64
2022/01/08 17:32:04;;;;;;;45.05;24.98;;;;;;;;;;6260592;28;20568;-64
2022/01/08 17:35:07;;;;;;;44.22;26.30;;;;;;;;;;6254158;28;20527;-65
2022/01/08 17:38:11;;;;;;;49.90;27.48;;;;;;;;;;6257928;28;20390;-64
2022/01/08 17:41:13;;;;;;;;;;;;;;;;;;6257144;28;20048;-64
2022/01/08 17:44:14;;;;;;;45.17;25.40;;;;;;;;;;6257859;28;20011;-64
2022/01/08 17:47:17;;;;;;;47.55;26.02;;;;;;;;;;6262328;28;20088;-64
2022/01/08 17:50:19;;;;;;;50.50;26.10;;;;;;;;;;6259198;28;20045;-64
2022/01/08 17:53:22;;;;;;;49.88;27.40;;;;;;;;;;6259471;28;20145;-64
2022/01/08 17:56:24;;;;;;;48.17;26.73;;;;;;;;;;6256995;28;20055;-64
2022/01/08 17:59:25;;;;;;;48.95;25.85;;;;;;;;;;6253505;28;20068;-64
2022/01/08 18:02:27;;;;;;;48.42;25.42;;;;;;;;;;6264946;28;20049;-64
2022/01/08 18:05:29;;;;;;;43.05;25.02;;;;;;;;;;6266246;28;20568;-64
2022/01/08 18:08:32;;;;;;;47.47;27.23;;;;;;;;;;6265302;28;20057;-64